Portland, Colorado
Current Conditions -  °F | °C
As of 11:35 AM on Thursday 30 Oct 2014 (Local Time) from K1V6 Reporting Station
Clear Clear  
Wind Chill: 61°   Ceiling: Unl
Heat Index: 61°   Visibility: 10mi
Dew Point: 25°   Wind: 7mph
Humidity: 25%   Direction: 110°ESE
Pressure: 30.4"   Gusts: NA
Location:  38.3191°N, 105.161°W
Report Text: K1V6 301735Z AUTO 11006KT 10SM CLR 16/M04 A3040 RMK AO2
Loading
Personal Weather Stations






























Interactive Weather Map
Tropical Storm Tracking
New forecast layout! Learn more

10-Day Weather Forecast

Advertisements
Track Severe Weather on mobile